Time;durP1;ratioP1;P1;durP2;ratioP2;P2;SDS_P1;SDS_P2;PMS_P1;PMS_P2;Temp;Humidity;BMP_temperature;BMP_pressure;BME280_temperature;BME280_humidity;BME280_pressure;Samples;Min_cycle;Max_cycle;Signal;HPM_P1;HPM_P2
2022/02/15 00:02:07;;;;;;;61.70;28.90;;;;;;;-0.05;73.91;98000.38;106319;1280;22575;-72
2022/02/15 00:04:37;;;;;;;64.40;30.60;;;;;;;-0.06;73.88;98002.33;106272;1280;23683;-72
2022/02/15 00:07:04;;;;;;;57.20;27.00;;;;;;;-0.10;74.13;97999.58;105980;1281;139707;-72
2022/02/15 00:09:31;;;;;;;59.20;27.80;;;;;;;-0.14;74.26;97994.67;105994;1281;24259;-72
2022/02/15 00:11:58;;;;;;;64.00;29.10;;;;;;;-0.16;74.21;97995.39;106044;1281;137876;-72
2022/02/15 00:14:25;;;;;;;59.70;27.60;;;;;;;-0.18;74.30;97992.05;106099;1281;22569;-72
2022/02/15 00:16:52;;;;;;;57.90;27.70;;;;;;;-0.19;74.44;97988.15;106138;1281;22580;-72
2022/02/15 00:19:19;;;;;;;58.50;28.00;;;;;;;-0.18;74.56;97987.08;106230;1281;137992;-72
2022/02/15 00:21:46;;;;;;;62.80;26.80;;;;;;;-0.18;74.53;97993.67;106141;1280;22833;-72
2022/02/15 00:24:27;;;;;;;65.90;32.10;;;;;;;-0.23;74.79;97993.61;106003;1280;137635;-72
2022/02/15 00:26:55;;;;;;;73.20;32.90;;;;;;;-0.33;74.70;97989.66;106174;1280;25318;-72
2022/02/15 00:29:23;;;;;;;62.70;28.40;;;;;;;-0.45;74.89;97984.50;105826;1281;25376;-72
2022/02/15 00:31:50;;;;;;;58.40;28.70;;;;;;;-0.51;75.60;97981.61;105744;1281;138426;-72
2022/02/15 00:34:17;;;;;;;48.10;25.80;;;;;;;-0.51;75.50;97978.89;105991;1280;22556;-73
2022/02/15 00:36:44;;;;;;;51.50;25.70;;;;;;;-0.49;75.70;97985.64;105823;1281;138604;-72
2022/02/15 00:39:11;;;;;;;54.20;24.60;;;;;;;-0.46;75.98;97983.13;105849;1281;25435;-72
2022/02/15 00:41:38;;;;;;;54.20;24.80;;;;;;;-0.44;76.01;97977.89;105749;1281;137944;-72
2022/02/15 00:44:06;;;;;;;54.10;24.40;;;;;;;-0.42;76.32;97978.89;105770;1281;24230;-72
2022/02/15 00:46:33;;;;;;;58.60;25.90;;;;;;;-0.41;76.11;97981.51;105816;1281;25364;-72
2022/02/15 00:49:00;;;;;;;60.70;29.00;;;;;;;-0.40;76.29;97984.68;105704;1281;137767;-72
2022/02/15 00:51:27;;;;;;;60.50;27.50;;;;;;;-0.46;75.80;97971.68;105851;1281;24276;-72
2022/02/15 00:53:54;;;;;;;54.40;26.50;;;;;;;-0.52;76.18;97976.30;105877;1281;139066;-72
2022/02/15 00:56:22;;;;;;;59.50;28.10;;;;;;;-0.53;76.39;97984.67;105860;1281;22581;-72
2022/02/15 00:58:49;;;;;;;61.10;28.50;;;;;;;-0.53;76.09;97970.94;105778;1281;24433;-72
2022/02/15 01:01:16;;;;;;;52.80;25.00;;;;;;;-0.55;76.26;97974.73;105775;1281;137980;-72
2022/02/15 01:03:43;;;;;;;58.80;29.90;;;;;;;-0.59;76.15;97977.11;105872;1281;22756;-72
2022/02/15 01:06:11;;;;;;;63.80;30.30;;;;;;;-0.63;76.21;97967.50;105917;1281;138677;-72
2022/02/15 01:08:39;;;;;;;58.90;27.80;;;;;;;-0.69;76.36;97957.98;105829;1281;22559;-72
2022/02/15 01:11:12;;;;;;;;;;;;;;;-0.69;76.60;97962.27;105891;1281;22690;-71
2022/02/15 01:13:39;;;;;;;56.70;27.70;;;;;;;-0.74;76.67;97962.96;105763;1281;124519;-72
2022/02/15 01:16:06;;;;;;;60.70;29.40;;;;;;;-0.81;76.73;97945.10;106047;1281;22569;-72
2022/02/15 01:18:34;;;;;;;59.90;29.00;;;;;;;-0.86;76.83;97951.73;105740;1281;138321;-72
2022/02/15 01:21:01;;;;;;;61.80;30.50;;;;;;;-0.87;77.12;97958.84;105704;1281;23199;-72
2022/02/15 01:23:28;;;;;;;67.10;32.60;;;;;;;-0.90;77.37;97947.89;105702;1281;22573;-72
2022/02/15 01:25:56;;;;;;;67.00;31.20;;;;;;;-0.93;77.41;97942.05;105650;1281;137626;-72
2022/02/15 01:28:23;;;;;;;60.40;30.00;;;;;;;-1.00;77.33;97938.42;105799;1282;22721;-71
2022/02/15 01:30:50;;;;;;;67.10;30.00;;;;;;;-1.11;77.41;97937.54;105704;1281;137645;-71
2022/02/15 01:33:17;;;;;;;70.10;32.10;;;;;;;-1.18;77.87;97934.14;105703;1281;22684;-71
2022/02/15 01:36:00;;;;;;;57.40;29.30;;;;;;;-1.25;78.36;97923.95;105614;1280;137882;-71
2022/02/15 01:38:28;;;;;;;56.00;28.00;;;;;;;-1.28;78.53;97928.75;105560;1282;22648;-71
2022/02/15 01:40:55;;;;;;;60.00;28.00;;;;;;;-1.27;78.64;97925.29;105720;1281;22731;-71
2022/02/15 01:43:24;;;;;;;57.10;26.40;;;;;;;-1.24;78.96;97926.08;105752;1280;137620;-71
2022/02/15 01:45:51;;;;;;;58.80;28.20;;;;;;;-1.21;79.13;97920.61;105847;1280;23953;-71
2022/02/15 01:48:18;;;;;;;61.70;29.60;;;;;;;-1.19;79.06;97917.49;105560;1281;137877;-71
2022/02/15 01:50:46;;;;;;;57.10;27.30;;;;;;;-1.20;79.03;97914.42;105648;1281;25270;-71
2022/02/15 01:53:13;;;;;;;57.30;27.90;;;;;;;-1.22;79.18;97920.96;105731;1281;22589;-71
2022/02/15 01:55:40;;;;;;;67.20;33.20;;;;;;;-1.32;79.28;97923.50;105646;1282;138076;-70
2022/02/15 01:58:09;;;;;;;65.00;29.50;;;;;;;-1.39;79.18;97925.45;105697;1280;26972;-71
2022/02/15 02:00:41;;;;;;;66.80;29.60;;;;;;;-1.41;79.42;97928.09;105633;1281;138031;-70
2022/02/15 02:03:13;;;;;;;62.50;29.30;;;;;;;-1.41;79.56;97927.77;105800;1281;27023;-70
2022/02/15 02:05:54;;;;;;;59.40;29.80;;;;;;;-1.41;79.72;97926.68;105613;1281;138417;-70
2022/02/15 02:08:26;;;;;;;58.60;26.90;;;;;;;-1.40;79.73;97925.22;105919;1281;25269;-70
2022/02/15 02:10:54;;;;;;;65.20;31.30;;;;;;;-1.42;80.01;97927.20;105874;1282;22554;-70
2022/02/15 02:13:34;;;;;;;64.60;30.30;;;;;;;-1.45;80.24;97930.06;105771;1281;138202;-70
2022/02/15 02:16:02;;;;;;;68.00;31.40;;;;;;;-1.47;80.26;97927.59;105674;1282;22581;-70
2022/02/15 02:18:48;;;;;;;59.90;28.90;;;;;;;-1.47;80.11;97932.30;105808;1281;138221;-70
2022/02/15 02:21:17;;;;;;;62.90;27.20;;;;;;;-1.49;80.38;97932.61;105950;1281;22553;-70
2022/02/15 02:23:44;;;;;;;62.30;30.00;;;;;;;-1.49;80.27;97931.08;105731;1281;137845;-70
2022/02/15 02:26:14;;;;;;;62.00;30.20;;;;;;;-1.50;80.75;97924.21;105932;1280;22584;-70
2022/02/15 02:28:56;;;;;;;58.70;29.30;;;;;;;-1.54;80.59;97924.02;105761;1281;24242;-70
2022/02/15 02:31:24;;;;;;;64.30;30.80;;;;;;;-1.59;80.91;97921.05;105775;1281;138268;-70
2022/02/15 02:34:07;;;;;;;60.10;29.10;;;;;;;-1.63;80.86;97916.25;105763;1281;24373;-70
2022/02/15 02:36:48;;;;;;;57.50;27.80;;;;;;;-1.62;80.86;97918.17;105718;1280;138142;-70
2022/02/15 02:39:26;;;;;;;57.30;27.60;;;;;;;-1.60;81.12;97919.32;105800;1281;22590;-70
2022/02/15 02:41:55;;;;;;;60.20;28.80;;;;;;;-1.58;81.12;97914.59;105888;1281;138044;-70
2022/02/15 02:44:22;;;;;;;69.30;31.00;;;;;;;-1.59;81.36;97913.84;105793;1281;23962;-70
2022/02/15 02:46:50;;;;;;;63.00;31.70;;;;;;;-1.57;81.60;97914.72;105910;1281;22574;-70
2022/02/15 02:49:18;;;;;;;66.20;30.40;;;;;;;-1.55;81.57;97914.27;105627;1281;137720;-70
2022/02/15 02:51:45;;;;;;;60.30;29.20;;;;;;;-1.53;81.59;97915.70;105807;1281;22767;-70
2022/02/15 02:54:12;;;;;;;59.60;29.70;;;;;;;-1.51;81.33;97916.91;105918;1282;138841;-70
2022/02/15 02:56:48;;;;;;;62.60;29.00;;;;;;;-1.53;81.51;97914.45;105775;1282;22558;-70
2022/02/15 02:59:16;;;;;;;60.90;30.00;;;;;;;-1.55;81.37;97915.51;106058;1280;22579;-70
2022/02/15 03:01:43;;;;;;;62.00;30.20;;;;;;;-1.56;81.44;97914.17;105890;1281;138125;-70
2022/02/15 03:04:10;;;;;;;58.40;28.50;;;;;;;-1.55;82.08;97916.81;105723;1280;22848;-70
2022/02/15 03:06:37;;;;;;;61.90;31.10;;;;;;;-1.54;81.98;97917.86;105711;1280;137740;-70
2022/02/15 03:09:05;;;;;;;62.20;31.60;;;;;;;-1.53;81.93;97914.79;105768;1280;22550;-70
2022/02/15 03:11:33;;;;;;;64.40;29.40;;;;;;;-1.50;82.00;97913.17;105865;1281;24230;-70
2022/02/15 03:14:00;;;;;;;57.80;28.90;;;;;;;-1.47;81.63;97909.49;105759;1281;137531;-70
2022/02/15 03:16:34;;;;;;;58.20;28.80;;;;;;;-1.47;81.54;97918.34;105902;1281;22735;-73
2022/02/15 03:19:03;;;;;;;60.60;29.20;;;;;;;-1.52;81.64;97917.65;105649;1281;137615;-70
2022/02/15 03:21:30;;;;;;;55.40;28.30;;;;;;;-1.50;82.07;97919.11;106010;1281;22548;-70
2022/02/15 03:23:58;;;;;;;64.70;30.90;;;;;;;-1.54;81.95;97918.09;105618;1280;137895;-70
2022/02/15 03:26:26;;;;;;;56.50;29.40;;;;;;;-1.54;81.99;97916.64;105862;1281;24210;-70
2022/02/15 03:28:54;;;;;;;59.90;29.90;;;;;;;-1.54;81.89;97913.30;105961;1280;22648;-70
2022/02/15 03:31:22;;;;;;;55.90;28.10;;;;;;;-1.55;81.68;97913.98;105922;1281;139231;-70
2022/02/15 03:33:53;;;;;;;62.80;28.90;;;;;;;-1.54;81.64;97914.83;106057;1281;24302;-70
2022/02/15 03:36:21;;;;;;;58.80;29.50;;;;;;;-1.52;82.14;97916.65;105746;1281;137922;-70
2022/02/15 03:38:49;;;;;;;59.80;26.70;;;;;;;-1.54;82.08;97914.70;105967;1281;22554;-70
2022/02/15 03:44:21;;;;;;;64.10;30.00;;;;;;;-1.70;82.24;97933.56;106066;1281;137426;-70
2022/02/15 03:46:50;;;;;;;56.20;29.20;;;;;;;-1.75;82.33;97930.90;105880;1280;22799;-70
2022/02/15 03:49:20;;;;;;;56.40;27.30;;;;;;;-1.76;82.63;97928.70;105770;1281;137918;-70
2022/02/15 03:51:49;;;;;;;55.80;26.60;;;;;;;-1.77;82.34;97937.84;105767;1281;30800;-70
2022/02/15 03:54:17;;;;;;;60.40;28.10;;;;;;;-1.79;82.11;97939.38;105709;1281;138264;-70
2022/02/15 03:56:44;;;;;;;57.40;28.50;;;;;;;-1.80;82.36;97936.81;106051;1281;24091;-70
2022/02/15 03:59:11;;;;;;;65.40;30.70;;;;;;;-1.80;82.70;97935.95;106153;1281;25391;-70
2022/02/15 04:01:39;;;;;;;56.40;29.40;;;;;;;-1.77;82.78;97942.48;105750;1281;138782;-70
2022/02/15 04:04:06;;;;;;;56.80;28.30;;;;;;;-1.73;82.70;97939.56;105798;1281;22856;-70
2022/02/15 04:06:33;;;;;;;60.00;27.70;;;;;;;-1.69;82.93;97938.69;105821;1281;138210;-71
2022/02/15 04:09:01;;;;;;;59.80;28.00;;;;;;;-1.63;82.94;97940.84;105990;1281;22562;-71
2022/02/15 04:11:30;;;;;;;60.30;29.70;;;;;;;-1.57;83.13;97937.35;105887;1281;24241;-71
2022/02/15 04:13:57;;;;;;;55.10;29.50;;;;;;;-1.54;83.15;97936.19;105670;1281;137703;-71
2022/02/15 04:16:24;;;;;;;53.20;27.80;;;;;;;-1.50;82.86;97942.90;105758;1281;22550;-71
2022/02/15 04:18:52;;;;;;;58.40;28.10;;;;;;;-1.48;82.49;97939.98;105663;1281;138456;-71
2022/02/15 04:21:23;;;;;;;59.50;27.50;;;;;;;-1.45;82.58;97938.70;106009;1281;22550;-71
2022/02/15 04:23:51;;;;;;;57.80;27.60;;;;;;;-1.44;82.48;97937.90;106068;1281;24309;-71
2022/02/15 04:26:18;;;;;;;53.60;26.30;;;;;;;-1.43;82.41;97938.83;105901;1281;137616;-71
2022/02/15 04:28:46;;;;;;;55.50;27.70;;;;;;;-1.42;82.41;97937.38;105787;1281;22578;-71
2022/02/15 04:31:29;;;;;;;56.60;29.10;;;;;;;-1.42;82.59;97934.48;105876;1281;138682;-70
2022/02/15 04:33:56;;;;;;;57.20;28.60;;;;;;;-1.41;82.53;97932.23;105775;1280;22943;-70
2022/02/15 04:36:24;;;;;;;48.80;26.30;;;;;;;-1.40;82.58;97930.11;105768;1281;138700;-70
2022/02/15 04:38:54;;;;;;;48.80;26.20;;;;;;;-1.39;82.51;97935.14;105788;1281;25290;-70
2022/02/15 04:41:21;;;;;;;57.90;26.50;;;;;;;-1.39;82.68;97933.74;105892;1281;27075;-70
2022/02/15 04:43:49;;;;;;;57.50;27.70;;;;;;;-1.41;82.23;97932.44;105687;1280;137999;-70
2022/02/15 04:46:23;;;;;;;58.30;27.50;;;;;;;-1.45;82.53;97930.94;105875;1281;25346;-70
2022/02/15 04:48:50;;;;;;;56.90;28.70;;;;;;;-1.48;82.54;97935.70;105806;1281;138247;-70
2022/02/15 04:51:17;;;;;;;55.20;27.40;;;;;;;-1.49;82.43;97936.71;105769;1281;24312;-70
2022/02/15 04:53:47;;;;;;;;;;;;;;;-1.49;82.50;97942.86;105861;1281;24251;-70
2022/02/15 04:56:14;;;;;;;57.40;26.00;;;;;;;-1.51;82.42;97945.17;105655;1281;123545;-70
2022/02/15 04:58:43;;;;;;;59.60;26.60;;;;;;;-1.57;82.26;97945.09;105688;1281;22578;-70
2022/02/15 05:01:14;;;;;;;56.70;29.10;;;;;;;-1.63;82.50;97953.29;105725;1281;137678;-70
2022/02/15 05:04:05;;;;;;;60.60;29.60;;;;;;;-1.72;82.48;97956.29;105797;1281;25324;-70
2022/02/15 05:06:33;;;;;;;60.10;30.10;;;;;;;-1.77;83.00;97956.33;105863;1281;138471;-70
2022/02/15 05:09:00;;;;;;;66.60;32.60;;;;;;;-1.80;82.91;97954.59;105788;1281;25452;-70
2022/02/15 05:11:27;;;;;;;53.10;26.40;;;;;;;-1.83;82.94;97955.45;105757;1281;25242;-70
2022/02/15 05:13:58;;;;;;;55.50;26.40;;;;;;;-1.81;83.62;97952.23;105810;1281;137609;-70
2022/02/15 05:16:29;;;;;;;57.70;28.10;;;;;;;-1.76;83.85;97951.41;105819;1281;23556;-70
2022/02/15 05:19:17;;;;;;;52.50;27.20;;;;;;;-1.69;84.03;97952.43;105551;1281;138150;-70
2022/02/15 05:21:44;;;;;;;55.30;29.60;;;;;;;-1.66;84.01;97957.13;105862;1281;25548;-70
2022/02/15 05:24:12;;;;;;;55.90;28.20;;;;;;;-1.64;83.98;97957.70;105747;1281;138792;-70
2022/02/15 05:26:44;;;;;;;49.50;26.90;;;;;;;-1.59;84.21;97955.73;105921;1281;22555;-70
2022/02/15 05:29:20;;;;;;;54.80;27.00;;;;;;;-1.56;83.57;97953.73;105826;1281;22728;-70
2022/02/15 05:31:49;;;;;;;53.80;26.80;;;;;;;-1.54;84.15;97950.63;105798;1280;138117;-70
2022/02/15 05:34:16;;;;;;;52.50;25.50;;;;;;;-1.50;83.92;97952.95;105751;1281;22573;-70
2022/02/15 05:36:46;;;;;;;53.50;26.70;;;;;;;-1.48;84.08;97954.27;105756;1281;137840;-70
2022/02/15 05:39:14;;;;;;;47.20;26.20;;;;;;;-1.45;84.03;97951.96;105813;1281;25516;-70
2022/02/15 05:41:48;;;;;;;45.70;23.90;;;;;;;-1.41;83.92;97955.19;105866;1281;24323;-70
2022/02/15 05:44:15;;;;;;;48.40;25.20;;;;;;;-1.39;83.93;97954.37;105696;1281;137545;-70
2022/02/15 05:46:42;;;;;;;49.40;24.90;;;;;;;-1.36;83.93;97953.27;105706;1281;25271;-70
2022/02/15 05:49:11;;;;;;;50.40;25.00;;;;;;;-1.35;83.49;97952.34;105946;1281;137613;-70
2022/02/15 05:51:45;;;;;;;45.60;24.20;;;;;;;-1.40;83.30;97958.77;105718;1281;22595;-70
2022/02/15 05:54:24;;;;;;;53.70;26.50;;;;;;;-1.43;83.36;97959.55;105812;1281;137791;-70
2022/02/15 05:56:53;;;;;;;46.20;26.90;;;;;;;-1.45;83.51;97958.58;105815;1281;25271;-70
2022/02/15 05:59:38;;;;;;;49.30;26.20;;;;;;;-1.46;83.59;97957.92;105896;1281;22747;-70
2022/02/15 06:02:12;;;;;;;51.70;25.60;;;;;;;-1.48;83.16;97964.73;105745;1281;137748;-70
2022/02/15 06:05:02;;;;;;;66.10;31.70;;;;;;;-1.55;83.15;97969.98;105720;1281;29731;-70
2022/02/15 06:07:31;;;;;;;64.80;31.00;;;;;;;-1.65;82.93;97969.92;105780;1281;138249;-70
2022/02/15 06:10:10;;;;;;;55.80;26.40;;;;;;;-1.72;83.04;97974.64;105717;1281;25228;-70
2022/02/15 06:12:39;;;;;;;70.50;31.50;;;;;;;-1.79;83.37;97979.17;105843;1281;137795;-70
2022/02/15 06:15:08;;;;;;;67.40;31.80;;;;;;;-1.82;83.94;97981.45;105765;1281;25444;-70
2022/02/15 06:17:53;;;;;;;49.90;26.00;;;;;;;-1.80;84.19;97983.77;105910;1281;24302;-70
2022/02/15 06:20:20;;;;;;;56.00;26.60;;;;;;;-1.75;84.57;97989.80;105940;1281;137757;-70
2022/02/15 06:22:48;;;;;;;53.00;27.50;;;;;;;-1.70;84.49;97985.48;105957;1280;25375;-70
2022/02/15 06:25:15;;;;;;;50.20;25.60;;;;;;;-1.71;84.22;97996.39;106423;1280;137700;-70
2022/02/15 06:27:47;;;;;;;62.40;28.50;;;;;;;-1.72;84.48;97997.20;106214;1280;22560;-70
2022/02/15 06:30:29;;;;;;;57.00;27.60;;;;;;;-1.68;84.75;97999.64;105696;1280;139434;-70
2022/02/15 06:33:00;;;;;;;50.90;26.00;;;;;;;-1.62;84.60;97998.36;106545;1279;24181;-70
2022/02/15 06:35:28;;;;;;;48.90;26.30;;;;;;;-1.56;84.51;97998.95;106450;1280;30316;-70
2022/02/15 06:38:05;;;;;;;51.60;26.60;;;;;;;-1.51;84.31;98001.71;106089;1280;137916;-70
2022/02/15 06:40:33;;;;;;;49.80;25.00;;;;;;;-1.47;84.43;98008.45;106035;1280;24401;-70
2022/02/15 06:43:02;;;;;;;59.40;29.00;;;;;;;-1.40;84.69;98008.34;106177;1280;137663;-70
2022/02/15 06:45:31;;;;;;;49.50;26.50;;;;;;;-1.32;84.63;98006.50;106276;1280;23854;-70
2022/02/15 06:47:58;;;;;;;43.80;24.20;;;;;;;-1.22;84.95;98008.31;106287;1280;138318;-71
2022/02/15 06:50:25;;;;;;;51.30;26.60;;;;;;;-1.11;85.07;98011.83;106004;1279;25556;-70
2022/02/15 06:53:09;;;;;;;52.10;26.60;;;;;;;-1.02;84.66;98023.27;105793;1281;22823;-70
2022/02/15 06:56:05;;;;;;;51.00;26.20;;;;;;;-0.95;84.64;98026.02;106064;1280;137891;-70
2022/02/15 06:58:32;;;;;;;56.80;28.20;;;;;;;-0.91;84.35;98030.00;105587;1280;22566;-70
2022/02/15 07:00:59;;;;;;;54.60;27.90;;;;;;;-0.90;84.22;98032.59;105509;1281;138726;-71
2022/02/15 07:03:27;;;;;;;52.40;26.90;;;;;;;-0.90;84.06;98028.95;105896;1280;25332;-70
2022/02/15 07:05:57;;;;;;;56.20;25.90;;;;;;;-0.89;84.27;98027.58;105942;1280;23238;-72
2022/02/15 07:08:25;;;;;;;52.50;27.20;;;;;;;-0.82;84.73;98028.41;105868;1280;138135;-71
2022/02/15 07:10:54;;;;;;;55.80;26.60;;;;;;;-0.74;84.99;98023.52;106134;1280;22578;-71
2022/02/15 07:13:25;;;;;;;52.80;28.90;;;;;;;-0.66;84.80;98020.83;105877;1280;137607;-72
2022/02/15 07:15:56;;;;;;;53.10;27.90;;;;;;;-0.59;84.59;98024.18;106226;1281;24242;-72
2022/02/15 07:18:23;;;;;;;51.50;26.50;;;;;;;-0.50;84.46;98023.55;105704;1281;138446;-71
2022/02/15 07:21:10;;;;;;;59.50;28.20;;;;;;;-0.44;84.22;98031.54;106159;1280;25502;-72
2022/02/15 07:23:44;;;;;;;53.20;25.40;;;;;;;-0.42;84.23;98037.49;105882;1279;23968;-72
2022/02/15 07:26:31;;;;;;;55.70;27.50;;;;;;;-0.40;84.40;98039.55;105839;1280;137649;-71
2022/02/15 07:28:58;;;;;;;58.90;30.50;;;;;;;-0.36;84.62;98042.14;106179;1279;24463;-71
2022/02/15 07:31:26;;;;;;;57.30;28.00;;;;;;;-0.31;84.27;98036.69;105879;1280;138123;-72
2022/02/15 07:34:08;;;;;;;54.50;29.90;;;;;;;-0.20;84.80;98036.05;105810;1280;22854;-70
2022/02/15 07:36:37;;;;;;;47.90;27.00;;;;;;;-0.07;84.68;98036.33;105343;1282;137966;-70
2022/02/15 07:39:06;;;;;;;47.10;24.10;;;;;;;0.05;84.68;98038.04;106062;1279;23163;-69
2022/02/15 07:41:33;;;;;;;66.00;33.60;;;;;;;0.17;84.30;98036.66;105993;1281;25321;-70
2022/02/15 07:44:00;;;;;;;60.50;29.40;;;;;;;0.22;83.81;98039.08;106087;1281;138707;-69
2022/02/15 07:46:32;;;;;;;61.50;31.20;;;;;;;0.26;83.69;98037.58;105886;1279;23177;-70
2022/02/15 07:49:16;;;;;;;54.20;28.50;;;;;;;0.32;83.98;98032.98;105912;1280;138444;-70
2022/02/15 07:51:44;;;;;;;62.80;30.70;;;;;;;0.42;83.78;98041.94;106245;1279;23944;-70
2022/02/15 07:54:12;;;;;;;71.90;33.70;;;;;;;0.49;83.71;98044.13;106143;1280;25329;-70
2022/02/15 07:56:39;;;;;;;65.20;32.30;;;;;;;0.51;83.20;98050.58;106138;1280;137817;-70
2022/02/15 07:59:06;;;;;;;64.30;32.20;;;;;;;0.53;83.48;98052.29;106063;1280;24341;-70
2022/02/15 08:01:33;;;;;;;46.40;24.70;;;;;;;0.56;83.21;98050.49;105977;1280;137589;-71
2022/02/15 08:04:00;;;;;;;58.90;28.80;;;;;;;0.63;83.16;98048.98;105895;1279;22703;-70
2022/02/15 08:06:30;;;;;;;;;;;;;;;0.71;83.08;98050.64;105795;1279;138298;-71
2022/02/15 08:08:58;;;;;;;65.20;32.30;;;;;;;0.81;82.77;98054.20;105832;1280;24330;-70
2022/02/15 08:11:25;;;;;;;67.50;32.00;;;;;;;0.90;82.76;98051.27;106669;1280;22571;-71
2022/02/15 08:13:54;;;;;;;69.80;34.30;;;;;;;1.00;82.74;98056.71;106275;1280;138767;-71
2022/02/15 08:16:22;;;;;;;68.90;32.10;;;;;;;1.09;82.87;98056.05;106780;1279;23806;-70
2022/02/15 08:18:49;;;;;;;71.70;36.80;;;;;;;1.19;82.73;98059.91;106094;1279;138142;-70
2022/02/15 08:21:16;;;;;;;73.20;34.50;;;;;;;1.30;82.43;98061.14;106555;1279;22585;-71
2022/02/15 08:23:43;;;;;;;71.80;33.10;;;;;;;1.37;82.40;98062.14;106633;1279;24293;-71
2022/02/15 08:26:10;;;;;;;63.20;32.20;;;;;;;1.46;81.96;98058.90;106354;1280;137673;-70
2022/02/15 08:28:43;;;;;;;53.60;28.80;;;;;;;1.56;81.57;98055.41;106175;1280;24312;-70
2022/02/15 08:31:11;;;;;;;51.90;28.10;;;;;;;1.67;81.18;98055.44;106072;1280;139470;-70
2022/02/15 08:33:38;;;;;;;61.60;31.10;;;;;;;1.77;80.90;98054.26;105945;1280;25380;-71
2022/02/15 08:36:21;;;;;;;50.90;27.20;;;;;;;1.87;80.47;98055.18;105965;1280;138037;-70
2022/02/15 08:38:48;;;;;;;55.40;28.20;;;;;;;1.95;80.17;98054.92;105810;1279;22560;-70
2022/02/15 08:41:15;;;;;;;57.90;27.20;;;;;;;2.03;80.12;98050.26;105913;1279;26520;-70
2022/02/15 08:43:42;;;;;;;54.00;28.00;;;;;;;2.13;79.88;98054.27;105921;1281;137848;-71
2022/02/15 08:46:09;;;;;;;61.20;29.00;;;;;;;2.20;79.65;98050.36;105913;1279;22625;-72
2022/02/15 08:48:51;;;;;;;56.10;28.30;;;;;;;2.30;79.62;98049.06;105982;1280;137783;-71
2022/02/15 08:51:19;;;;;;;46.30;25.90;;;;;;;2.42;79.29;98054.23;106019;1280;22560;-71
2022/02/15 08:53:50;;;;;;;43.60;24.80;;;;;;;2.54;79.13;98053.67;105969;1280;22576;-71
2022/02/15 08:56:21;;;;;;;43.90;23.30;;;;;;;2.65;78.92;98057.54;106198;1280;138395;-71
2022/02/15 08:58:49;;;;;;;38.10;22.30;;;;;;;2.77;78.61;98062.20;106321;1280;22714;-71
2022/02/15 09:01:17;;;;;;;46.10;23.30;;;;;;;2.90;78.38;98062.02;105771;1279;137749;-71
2022/02/15 09:03:44;;;;;;;44.60;24.50;;;;;;;3.02;77.94;98059.98;105922;1280;24243;-71
2022/02/15 09:06:11;;;;;;;46.10;24.30;;;;;;;3.13;77.44;98058.95;106019;1281;24815;-71
2022/02/15 09:08:38;;;;;;;46.10;24.30;;;;;;;3.22;77.05;98062.88;106033;1280;137824;-71
2022/02/15 09:11:05;;;;;;;48.20;23.70;;;;;;;3.31;76.85;98061.14;106136;1280;22621;-71
2022/02/15 09:13:32;;;;;;;44.60;23.60;;;;;;;3.41;76.65;98059.10;105786;1280;137464;-71
2022/02/15 09:15:59;;;;;;;46.70;23.50;;;;;;;3.50;76.41;98059.08;106214;1279;24425;-71
2022/02/15 09:18:26;;;;;;;44.30;24.20;;;;;;;3.59;76.17;98053.36;105726;1280;137597;-71
2022/02/15 09:20:55;;;;;;;47.30;24.70;;;;;;;3.68;75.80;98057.35;105831;1279;22590;-71
2022/02/15 09:23:22;;;;;;;45.00;23.00;;;;;;;3.76;75.64;98052.70;105881;1280;25173;-71
2022/02/15 09:25:49;;;;;;;47.60;26.80;;;;;;;3.87;75.45;98056.52;105723;1280;137812;-73
2022/02/15 09:28:17;;;;;;;45.00;23.20;;;;;;;4.00;75.08;98059.26;106676;1280;22590;-72
2022/02/15 09:30:44;;;;;;;41.30;23.10;;;;;;;4.12;74.76;98062.58;105952;1281;138158;-72
2022/02/15 09:33:11;;;;;;;40.50;21.90;;;;;;;4.26;74.43;98062.96;105922;1281;22550;-72
2022/02/15 09:35:38;;;;;;;37.30;20.60;;;;;;;4.40;73.91;98063.58;106012;1281;24376;-72
2022/02/15 09:38:05;;;;;;;32.80;18.00;;;;;;;4.51;73.72;98058.95;105835;1280;137839;-72
2022/02/15 09:40:32;;;;;;;36.90;17.50;;;;;;;4.62;73.21;98062.58;105916;1280;25233;-72
2022/02/15 09:43:00;;;;;;;29.30;15.40;;;;;;;4.75;72.80;98065.77;105755;1280;137604;-72
2022/02/15 09:45:28;;;;;;;28.00;14.70;;;;;;;4.88;72.29;98063.45;106147;1280;23215;-72
2022/02/15 09:47:57;;;;;;;32.70;14.70;;;;;;;5.00;71.72;98059.26;106147;1280;22717;-74
2022/02/15 09:50:24;;;;;;;26.10;14.10;;;;;;;5.12;71.27;98064.61;105770;1280;627686;-74
2022/02/15 09:52:51;;;;;;;19.20;12.50;;;;;;;5.24;70.21;98061.28;106217;1279;22676;-72
2022/02/15 09:55:18;;;;;;;17.70;11.60;;;;;;;5.34;70.17;98059.63;105873;1279;137555;-72
2022/02/15 09:57:46;;;;;;;20.50;11.30;;;;;;;5.45;69.43;98060.67;105830;1280;22589;-72
2022/02/15 10:00:14;;;;;;;17.90;11.00;;;;;;;5.56;69.29;98059.38;106316;1280;26507;-73
2022/02/15 10:02:42;;;;;;;21.30;11.80;;;;;;;5.66;68.60;98061.64;105923;1280;137923;-72
2022/02/15 10:05:15;;;;;;;22.00;16.60;;;;;;;5.77;68.44;98066.36;106408;1279;24285;-72
2022/02/15 10:07:57;;;;;;;23.70;14.90;;;;;;;5.88;68.10;98057.55;108144;1280;138094;-72
2022/02/15 10:10:30;;;;;;;22.40;12.50;;;;;;;5.98;67.50;98055.64;105615;1281;25351;-71
2022/02/15 10:13:14;;;;;;;17.60;10.60;;;;;;;6.09;66.93;98056.20;105573;1281;137905;-71
2022/02/15 10:15:48;;;;;;;20.60;12.30;;;;;;;6.19;66.83;98058.68;105549;1281;22560;-71
2022/02/15 10:18:28;;;;;;;20.00;12.40;;;;;;;6.31;66.26;98056.20;105578;1280;22587;-71
2022/02/15 10:20:57;;;;;;;19.70;11.90;;;;;;;6.43;65.99;98059.67;105526;1280;137975;-71
2022/02/15 10:23:29;;;;;;;19.90;12.10;;;;;;;6.54;65.78;98055.34;105735;1280;25589;-72
2022/02/15 10:25:58;;;;;;;17.20;11.30;;;;;;;6.65;65.28;98052.13;105317;1281;139372;-73
2022/02/15 10:28:29;;;;;;;18.80;9.70;;;;;;;6.77;64.74;98054.64;105852;1280;22682;-71
2022/02/15 10:31:14;;;;;;;17.60;9.30;;;;;;;6.88;63.70;98054.77;105680;1281;137625;-72
2022/02/15 10:33:45;;;;;;;20.30;10.00;;;;;;;6.97;63.58;98055.92;105824;1280;25358;-71
2022/02/15 10:36:14;;;;;;;16.00;9.00;;;;;;;7.07;62.87;98053.19;105799;1281;22801;-73
2022/02/15 10:38:44;;;;;;;18.00;9.00;;;;;;;7.16;62.59;98054.45;105828;1280;137847;-71
2022/02/15 10:41:13;;;;;;;15.30;9.00;;;;;;;7.26;61.94;98051.05;105865;1280;24438;-72
2022/02/15 10:43:55;;;;;;;16.00;9.50;;;;;;;7.35;61.97;98054.33;105637;1280;137499;-72
2022/02/15 10:46:25;;;;;;;17.90;10.60;;;;;;;7.44;61.31;98050.26;105722;1280;25441;-72
2022/02/15 10:48:53;;;;;;;18.10;10.50;;;;;;;7.52;61.25;98046.81;105689;1280;137667;-72
2022/02/15 10:51:22;;;;;;;21.70;11.30;;;;;;;7.59;60.84;98042.47;105774;1281;22614;-72
2022/02/15 10:53:50;;;;;;;20.30;12.10;;;;;;;7.64;60.96;98045.61;105769;1281;25448;-73
2022/02/15 10:56:17;;;;;;;19.50;11.50;;;;;;;7.70;61.02;98043.70;105535;1281;137760;-72
2022/02/15 10:58:46;;;;;;;21.20;12.00;;;;;;;7.78;60.64;98045.72;105714;1280;24318;-72
2022/02/15 11:01:13;;;;;;;;;;;;;;;7.86;60.20;98050.88;105776;1280;138160;-72
2022/02/15 11:03:42;;;;;;;18.50;12.50;;;;;;;7.91;60.08;98050.27;105641;1280;24486;-72
2022/02/15 11:06:10;;;;;;;23.10;12.60;;;;;;;7.97;59.58;98046.83;105872;1280;22567;-72
2022/02/15 11:08:40;;;;;;;22.00;12.50;;;;;;;8.04;59.55;98043.35;105617;1280;137719;-72
2022/02/15 11:11:17;;;;;;;21.20;11.30;;;;;;;8.13;59.32;98047.12;105716;1281;29935;-74
2022/02/15 11:13:45;;;;;;;27.20;12.70;;;;;;;8.24;58.91;98044.50;105353;1280;138152;-73
2022/02/15 11:16:18;;;;;;;26.90;12.70;;;;;;;8.27;59.11;98042.95;105598;1281;22737;-73
2022/02/15 11:18:45;;;;;;;26.20;14.10;;;;;;;8.29;59.05;98045.76;105353;1281;137782;-72
2022/02/15 11:21:26;;;;;;;23.20;13.90;;;;;;;8.29;58.73;98045.92;105677;1279;22567;-72
2022/02/15 11:23:59;;;;;;;24.20;13.90;;;;;;;8.32;58.68;98042.95;105650;1279;25331;-72
2022/02/15 11:26:41;;;;;;;25.20;13.50;;;;;;;8.37;58.38;98043.60;105610;1279;138011;-74